Upper Marlboro, Maryland
Current Conditions -  °F | °C
As of 11:58 PM on Monday 20 Oct 2014 (Local Time) from KADW Reporting Station
Scattered Clouds Scattered Clouds  
Wind Chill: 56°   Ceiling: Unl
Heat Index: 56°   Visibility: 10mi
Dew Point: 45°   Wind: 5mph
Humidity: 68%   Direction: 170°S
Pressure: 29.94"   Gusts: NA
Location:  38.82°N, 76.76°W
Report Text: KADW 210358Z AUTO 17004KT 10SM SCT080 13/07 A2994 RMK AO2 SLPNO T01320074 $
Loading
Personal Weather Stations






























Interactive Weather Map
Tropical Storm Tracking
New forecast layout! Learn more

10-Day Weather Forecast

Advertisements
Track Severe Weather on mobile